Time;durP1;ratioP1;P1;durP2;ratioP2;P2;SDS_P1;SDS_P2;PMS_P1;PMS_P2;Temp;Humidity;BMP_temperature;BMP_pressure;BME280_temperature;BME280_humidity;BME280_pressure;Samples;Min_cycle;Max_cycle;Signal;HPM_P1;HPM_P2
2023/02/03 00:00:05;;;;;;;10.40;2.77;;;3.90;99.90;;;;;;4977802;29;20468;-56
2023/02/03 00:02:32;;;;;;;4.13;2.97;;;3.90;99.90;;;;;;4977396;29;20451;-58
2023/02/03 00:04:59;;;;;;;4.67;2.50;;;3.90;99.90;;;;;;4977178;28;20486;-54
2023/02/03 00:07:28;;;;;;;2.97;2.27;;;3.90;99.90;;;;;;4965679;29;20437;-52
2023/02/03 00:09:56;;;;;;;11.87;2.53;;;4.00;99.90;;;;;;4958171;29;20469;-55
2023/02/03 00:12:24;;;;;;;2.70;2.00;;;3.90;99.90;;;;;;4958254;29;20445;-57
2023/02/03 00:14:51;;;;;;;4.70;2.23;;;4.00;99.90;;;;;;4958575;29;20468;-57
2023/02/03 00:17:18;;;;;;;12.73;3.63;;;3.90;99.90;;;;;;4957815;29;20464;-57
2023/02/03 00:19:45;;;;;;;6.63;2.53;;;4.00;99.90;;;;;;4957472;29;20460;-56
2023/02/03 00:22:12;;;;;;;9.77;3.53;;;3.90;99.90;;;;;;4957786;29;20484;-59
2023/02/03 00:24:39;;;;;;;7.13;3.40;;;3.90;99.90;;;;;;4957078;29;20485;-57
2023/02/03 00:27:06;;;;;;;6.47;3.50;;;3.90;99.90;;;;;;4957604;29;20540;-55
2023/02/03 00:29:36;;;;;;;15.60;2.97;;;3.90;99.90;;;;;;4957559;29;20476;-57
2023/02/03 00:32:03;;;;;;;4.90;2.20;;;3.80;99.90;;;;;;4957691;29;20472;-55
2023/02/03 00:34:30;;;;;;;11.10;2.47;;;3.80;99.90;;;;;;4957475;29;20480;-58
2023/02/03 00:36:57;;;;;;;5.53;2.00;;;3.90;99.90;;;;;;4958013;29;20444;-56
2023/02/03 00:39:24;;;;;;;9.30;3.77;;;3.90;99.90;;;;;;4956803;29;20488;-58
2023/02/03 00:41:51;;;;;;;3.70;2.80;;;3.80;99.90;;;;;;4957507;29;20413;-55
2023/02/03 00:44:20;;;;;;;2.93;2.60;;;3.90;99.90;;;;;;4957725;29;20455;-54
2023/02/03 00:46:48;;;;;;;8.23;2.43;;;3.80;99.90;;;;;;4957186;29;20445;-58
2023/02/03 00:49:15;;;;;;;17.57;3.10;;;3.80;99.90;;;;;;4957337;29;20468;-59
2023/02/03 00:51:42;;;;;;;3.80;2.27;;;3.80;99.90;;;;;;4957412;29;20452;-58
2023/02/03 00:54:09;;;;;;;10.23;3.27;;;3.70;99.90;;;;;;4956958;29;20456;-58
2023/02/03 00:56:36;;;;;;;7.43;4.63;;;3.70;99.90;;;;;;4957357;29;20440;-58
2023/02/03 00:59:03;;;;;;;4.40;3.23;;;3.70;99.90;;;;;;4957795;29;20448;-57
2023/02/03 01:01:30;;;;;;;8.23;3.53;;;3.70;99.90;;;;;;4957424;29;20440;-60
2023/02/03 01:04:02;;;;;;;5.60;3.30;;;3.70;99.90;;;;;;4956758;29;20445;-59
2023/02/03 01:06:31;;;;;;;6.87;3.33;;;3.80;99.90;;;;;;4957445;29;20476;-57
2023/02/03 01:08:58;;;;;;;13.23;3.57;;;3.70;99.90;;;;;;4956972;29;20449;-57
2023/02/03 01:11:29;;;;;;;9.90;4.50;;;3.70;99.90;;;;;;4956696;29;20483;-54
2023/02/03 01:14:00;;;;;;;4.30;2.97;;;3.70;99.90;;;;;;4956890;29;20477;-56
2023/02/03 01:16:29;;;;;;;13.60;2.83;;;3.80;99.90;;;;;;4958320;29;20461;-56
2023/02/03 01:19:05;;;;;;;12.23;2.40;;;3.90;99.90;;;;;;4960893;29;20474;-56
2023/02/03 01:21:33;;;;;;;7.13;3.03;;;3.80;99.90;;;;;;4960953;29;20486;-55
2023/02/03 01:24:05;;;;;;;9.87;3.17;;;3.90;99.90;;;;;;4960934;29;20473;-57
2023/02/03 01:26:31;;;;;;;4.90;3.20;;;3.90;99.90;;;;;;4961011;29;20476;-55
2023/02/03 01:29:00;;;;;;;8.67;2.50;;;3.90;99.90;;;;;;4960585;29;20910;-58
2023/02/03 01:31:28;;;;;;;8.87;3.10;;;4.00;99.90;;;;;;4960775;29;20458;-55
2023/02/03 01:33:56;;;;;;;4.50;3.00;;;4.00;99.90;;;;;;4960915;29;20435;-59
2023/02/03 01:36:30;;;;;;;7.90;5.00;;;4.00;99.90;;;;;;4960702;29;20475;-55
2023/02/03 01:38:57;;;;;;;7.50;3.40;;;4.00;99.90;;;;;;4961241;29;20456;-58
2023/02/03 01:41:26;;;;;;;4.60;2.90;;;4.00;99.90;;;;;;4960564;29;20476;-57
2023/02/03 01:43:55;;;;;;;4.60;3.27;;;3.90;99.90;;;;;;4960828;29;20455;-58
2023/02/03 01:46:32;;;;;;;9.33;5.07;;;3.90;99.90;;;;;;4960447;29;20492;-59
2023/02/03 01:49:05;;;;;;;11.00;4.50;;;3.90;99.90;;;;;;4960499;29;20451;-58
2023/02/03 01:51:33;;;;;;;7.90;3.90;;;3.90;99.90;;;;;;4960109;29;20488;-54
2023/02/03 01:54:01;;;;;;;9.47;4.00;;;3.90;99.90;;;;;;4960045;29;20476;-56
2023/02/03 01:56:34;;;;;;;9.90;3.80;;;3.90;99.90;;;;;;4960604;29;20500;-56
2023/02/03 01:59:01;;;;;;;5.40;3.23;;;3.90;99.90;;;;;;4960744;29;20433;-55
2023/02/03 02:01:30;;;;;;;5.63;3.17;;;3.90;99.90;;;;;;4960011;29;20477;-56
2023/02/03 02:03:59;;;;;;;8.30;3.73;;;3.80;99.90;;;;;;4960419;29;20451;-54
2023/02/03 02:06:26;;;;;;;9.57;3.27;;;3.80;99.90;;;;;;4959824;29;20500;-56
2023/02/03 02:09:00;;;;;;;3.73;3.17;;;3.70;99.90;;;;;;4959682;29;20456;-55
2023/02/03 02:11:28;;;;;;;10.57;4.60;;;3.70;99.90;;;;;;4959951;29;20532;-56
2023/02/03 02:14:01;;;;;;;6.13;3.13;;;3.70;99.90;;;;;;4959964;29;20436;-56
2023/02/03 02:16:38;;;;;;;8.70;4.37;;;3.60;99.90;;;;;;4959995;29;20480;-57
2023/02/03 02:19:46;;;;;;;6.80;4.17;;;3.60;99.90;;;;;;4960032;29;20444;-56
2023/02/03 02:22:17;;;;;;;6.77;4.60;;;3.60;99.90;;;;;;4959180;29;20488;-53
2023/02/03 02:25:24;;;;;;;9.53;3.30;;;3.60;99.90;;;;;;4959827;29;20436;-53
2023/02/03 02:28:17;;;;;;;5.23;3.17;;;3.60;99.90;;;;;;4959687;29;20476;-54
2023/02/03 02:31:07;;;;;;;7.27;3.07;;;3.60;99.90;;;;;;4959934;29;20421;-52
2023/02/03 02:33:42;;;;;;;7.00;4.13;;;3.60;99.90;;;;;;4959838;29;20426;-52
2023/02/03 02:36:20;;;;;;;7.47;3.00;;;3.60;99.90;;;;;;4959489;29;20425;-53
2023/02/03 02:38:55;;;;;;;11.60;4.87;;;3.50;99.90;;;;;;4959519;29;20468;-52
2023/02/03 02:41:31;;;;;;;5.30;2.93;;;3.50;99.90;;;;;;4959004;29;20511;-58
2023/02/03 02:44:01;;;;;;;5.03;3.20;;;3.40;99.90;;;;;;4958996;29;20850;-57
2023/02/03 02:46:34;;;;;;;4.30;2.60;;;3.40;99.90;;;;;;4959100;29;20469;-56
2023/02/03 02:49:07;;;;;;;3.13;2.77;;;3.40;99.90;;;;;;4959175;29;20433;-53
2023/02/03 02:51:35;;;;;;;5.00;3.10;;;3.40;99.90;;;;;;4959332;29;20448;-56
2023/02/03 02:54:06;;;;;;;3.50;2.50;;;3.30;99.90;;;;;;4959556;29;20464;-54
2023/02/03 02:56:36;;;;;;;3.13;2.83;;;3.30;99.90;;;;;;4959408;29;20425;-58
2023/02/03 02:59:07;;;;;;;4.53;2.30;;;3.30;99.90;;;;;;4959305;29;20433;-54
2023/02/03 03:01:34;;;;;;;3.10;2.90;;;3.30;99.90;;;;;;4958788;29;20487;-56
2023/02/03 03:04:10;;;;;;;4.10;2.30;;;3.30;99.90;;;;;;4958858;29;20437;-53
2023/02/03 03:06:40;;;;;;;2.97;2.00;;;3.30;99.90;;;;;;4959033;29;20472;-54
2023/02/03 03:09:15;;;;;;;5.23;2.10;;;3.30;99.90;;;;;;4958775;29;20457;-56
2023/02/03 03:11:44;;;;;;;2.70;2.00;;;3.30;99.90;;;;;;4959151;29;20432;-59
2023/02/03 03:14:13;;;;;;;4.47;2.10;;;3.30;99.90;;;;;;4957957;29;20506;-54
2023/02/03 03:16:47;;;;;;;2.80;2.00;;;3.30;99.90;;;;;;4958583;29;20468;-55
2023/02/03 03:19:19;;;;;;;3.20;2.07;;;3.30;99.90;;;;;;4958118;29;20521;-52
2023/02/03 03:21:50;;;;;;;2.67;2.03;;;3.30;99.90;;;;;;4958430;29;20461;-52
2023/02/03 03:24:23;;;;;;;3.20;2.30;;;3.30;99.90;;;;;;4958273;29;20472;-56
2023/02/03 03:26:53;;;;;;;5.17;2.60;;;3.30;99.90;;;;;;4958491;29;20479;-56
2023/02/03 03:29:27;;;;;;;3.70;1.70;;;3.40;99.90;;;;;;4958697;29;20840;-53
2023/02/03 03:31:54;;;;;;;2.30;2.00;;;3.40;99.90;;;;;;4958099;29;20443;-52
2023/02/03 03:34:22;;;;;;;2.63;1.90;;;3.30;99.90;;;;;;4958006;29;20479;-59
2023/02/03 03:36:58;;;;;;;3.90;1.80;;;3.40;99.90;;;;;;4958381;29;20457;-52
2023/02/03 03:39:33;;;;;;;2.77;2.10;;;3.40;99.90;;;;;;4957818;29;20448;-53
2023/02/03 03:42:07;;;;;;;4.73;1.50;;;3.40;99.90;;;;;;4957883;29;20417;-54
2023/02/03 03:44:39;;;;;;;2.27;1.50;;;3.40;99.90;;;;;;4957979;29;20437;-57
2023/02/03 03:47:13;;;;;;;1.97;1.63;;;3.50;99.90;;;;;;4958422;29;20496;-58
2023/02/03 03:49:45;;;;;;;2.10;1.50;;;3.40;99.90;;;;;;4957787;29;20439;-57
2023/02/03 03:52:17;;;;;;;2.23;1.77;;;3.40;99.90;;;;;;4957891;29;20476;-54
2023/02/03 03:54:45;;;;;;;2.90;1.53;;;3.50;99.90;;;;;;4958751;29;20433;-56
2023/02/03 03:57:20;;;;;;;2.63;1.57;;;3.50;99.90;;;;;;4957721;29;20500;-57
2023/02/03 03:59:49;;;;;;;2.37;1.40;;;3.50;99.90;;;;;;4958094;29;20412;-57
2023/02/03 04:02:19;;;;;;;1.73;1.47;;;3.60;99.90;;;;;;4958076;29;20583;-54
2023/02/03 04:04:49;;;;;;;2.97;1.80;;;3.60;99.90;;;;;;4958483;29;20436;-56
2023/02/03 04:07:16;;;;;;;2.70;1.50;;;3.60;99.90;;;;;;4958036;29;20503;-55
2023/02/03 04:09:43;;;;;;;8.93;4.27;;;3.60;99.90;;;;;;4957721;29;20472;-57
2023/02/03 04:12:22;;;;;;;5.60;4.23;;;3.60;99.90;;;;;;4957911;29;20460;-58
2023/02/03 04:14:51;;;;;;;4.07;2.60;;;3.70;99.90;;;;;;4957550;29;20504;-55
2023/02/03 04:17:19;;;;;;;1.70;1.50;;;3.70;99.90;;;;;;4957836;29;20440;-56
2023/02/03 04:19:47;;;;;;;2.50;1.63;;;3.70;99.90;;;;;;4957806;29;20469;-51
2023/02/03 04:22:14;;;;;;;6.20;3.10;;;3.70;99.90;;;;;;4957949;29;20473;-55
2023/02/03 04:24:41;;;;;;;2.60;2.40;;;3.80;99.90;;;;;;4957576;29;20464;-54
2023/02/03 04:27:07;;;;;;;2.83;1.97;;;3.90;99.90;;;;;;4957975;29;20504;-54
2023/02/03 04:29:34;;;;;;;3.40;2.50;;;3.90;99.90;;;;;;4957930;29;20464;-55
2023/02/03 04:32:01;;;;;;;2.83;2.20;;;3.90;99.90;;;;;;4957236;29;20456;-55
2023/02/03 04:34:28;;;;;;;4.23;3.00;;;3.90;99.90;;;;;;4957426;29;20460;-56
2023/02/03 04:36:56;;;;;;;6.47;3.23;;;4.00;99.90;;;;;;4957549;29;20464;-56
2023/02/03 04:39:23;;;;;;;3.53;3.07;;;4.00;99.90;;;;;;4957391;29;20463;-57
2023/02/03 04:41:50;;;;;;;3.80;3.07;;;4.10;99.90;;;;;;4957372;29;20472;-53
2023/02/03 04:44:18;;;;;;;4.50;2.90;;;4.20;99.90;;;;;;4957476;29;20448;-52
2023/02/03 04:46:45;;;;;;;13.50;7.60;;;4.20;99.90;;;;;;4956941;29;20516;-52
2023/02/03 04:49:15;;;;;;;5.27;3.80;;;4.20;99.90;;;;;;4957392;29;20475;-58
2023/02/03 04:51:42;;;;;;;8.20;3.70;;;4.30;99.90;;;;;;4959325;29;20517;-59
2023/02/03 04:54:11;;;;;;;6.30;4.30;;;4.30;99.90;;;;;;4960932;29;20479;-53
2023/02/03 04:56:38;;;;;;;6.37;3.70;;;4.40;99.90;;;;;;4961252;29;20476;-58
2023/02/03 04:59:05;;;;;;;7.10;3.53;;;4.40;99.90;;;;;;4962253;29;20472;-57
2023/02/03 05:01:32;;;;;;;7.73;4.40;;;4.50;99.90;;;;;;4962980;29;20468;-53
2023/02/03 05:03:59;;;;;;;7.30;4.20;;;4.60;99.90;;;;;;4962455;29;20480;-49
2023/02/03 05:06:28;;;;;;;6.30;3.60;;;4.60;99.90;;;;;;4961310;29;20547;-58
2023/02/03 05:08:55;;;;;;;6.13;4.53;;;4.60;99.90;;;;;;4960748;29;20531;-53
2023/02/03 05:11:24;;;;;;;6.00;4.37;;;4.80;99.90;;;;;;4961949;29;20432;-56
2023/02/03 05:13:54;;;;;;;8.73;5.40;;;4.80;99.90;;;;;;4962002;29;20449;-56
2023/02/03 05:16:21;;;;;;;6.67;4.43;;;4.90;99.90;;;;;;4961839;29;20476;-56
2023/02/03 05:18:48;;;;;;;9.37;5.07;;;5.00;99.90;;;;;;4961673;29;20528;-57
2023/02/03 05:21:15;;;;;;;9.77;4.73;;;5.00;99.90;;;;;;4961174;29;20480;-52
2023/02/03 05:23:42;;;;;;;10.30;6.27;;;5.10;99.90;;;;;;4961495;29;20472;-57
2023/02/03 05:26:09;;;;;;;11.10;6.90;;;5.20;99.90;;;;;;4960582;29;20516;-56
2023/02/03 05:28:37;;;;;;;19.80;8.73;;;5.20;99.90;;;;;;4960905;29;20428;-56
2023/02/03 05:31:05;;;;;;;7.87;5.67;;;5.20;99.90;;;;;;4961673;29;20452;-56
2023/02/03 05:33:32;;;;;;;14.07;7.83;;;5.30;99.90;;;;;;4961105;29;20420;-59
2023/02/03 05:35:58;;;;;;;12.63;6.70;;;5.30;99.90;;;;;;4961011;29;20549;-55
2023/02/03 05:38:25;;;;;;;14.03;6.90;;;5.40;99.90;;;;;;4961003;29;20461;-59
2023/02/03 05:43:38;;;;;;;15.20;8.23;;;5.60;99.90;;;;;;4960495;29;20483;-57
2023/02/03 05:46:07;;;;;;;12.53;7.80;;;5.60;99.90;;;;;;4960091;29;20445;-53
2023/02/03 05:48:34;;;;;;;12.07;7.30;;;5.70;99.90;;;;;;4960808;29;20524;-54
2023/02/03 05:51:01;;;;;;;15.60;8.50;;;5.80;99.90;;;;;;4960465;29;20449;-54
2023/02/03 05:53:28;;;;;;;14.57;8.87;;;5.90;99.90;;;;;;4960091;29;20444;-57
2023/02/03 05:55:55;;;;;;;14.60;9.93;;;5.90;99.90;;;;;;4960219;29;20417;-56
2023/02/03 05:58:21;;;;;;;15.50;9.23;;;6.00;99.90;;;;;;4960129;29;20483;-58
2023/02/03 06:00:50;;;;;;;12.93;8.33;;;6.20;99.90;;;;;;4959966;29;20449;-58
2023/02/03 06:03:16;;;;;;;18.47;9.40;;;6.20;99.90;;;;;;4960277;29;20480;-60
2023/02/03 06:05:43;;;;;;;14.77;8.47;;;6.30;99.90;;;;;;4960167;29;20508;-56
2023/02/03 06:08:10;;;;;;;20.40;11.90;;;6.30;99.90;;;;;;4960231;29;20548;-59
2023/02/03 06:10:38;;;;;;;22.80;9.80;;;6.40;99.90;;;;;;4959948;29;20461;-56
2023/02/03 06:13:10;;;;;;;18.73;8.30;;;6.50;99.90;;;;;;4960132;29;20457;-55
2023/02/03 06:15:37;;;;;;;20.20;10.07;;;6.60;99.90;;;;;;4959826;29;20441;-56
2023/02/03 06:18:07;;;;;;;16.43;9.90;;;6.60;99.90;;;;;;4960014;29;20428;-54
2023/02/03 06:20:34;;;;;;;14.30;8.17;;;6.60;99.90;;;;;;4959939;29;20437;-56
2023/02/03 06:23:01;;;;;;;16.20;9.40;;;6.70;99.90;;;;;;4959952;29;20456;-56
2023/02/03 06:25:28;;;;;;;13.17;9.03;;;6.70;99.90;;;;;;4959998;29;20436;-55
2023/02/03 06:27:55;;;;;;;21.10;10.40;;;6.70;99.90;;;;;;4959376;29;20559;-57
2023/02/03 06:30:22;;;;;;;11.10;7.60;;;6.70;99.90;;;;;;4959617;29;20456;-57
2023/02/03 06:32:49;;;;;;;14.00;8.80;;;6.80;99.90;;;;;;4959553;29;20483;-58
2023/02/03 06:35:18;;;;;;;22.77;10.10;;;6.80;99.90;;;;;;4959522;29;20413;-57
2023/02/03 06:37:45;;;;;;;20.70;9.87;;;6.90;99.90;;;;;;4959355;29;20473;-58
2023/02/03 06:40:13;;;;;;;11.80;8.20;;;6.90;99.90;;;;;;4959498;29;20487;-55
2023/02/03 06:42:40;;;;;;;20.17;10.60;;;6.90;99.90;;;;;;4959158;29;20517;-60
2023/02/03 06:45:07;;;;;;;15.20;10.40;;;6.90;99.90;;;;;;4959731;29;20500;-59
2023/02/03 06:47:34;;;;;;;16.57;9.80;;;6.90;99.90;;;;;;4959334;29;20496;-58
2023/02/03 06:50:01;;;;;;;14.73;9.60;;;7.00;99.90;;;;;;4959513;29;20456;-57
2023/02/03 06:52:29;;;;;;;16.40;9.30;;;7.00;99.90;;;;;;4959731;29;20553;-57
2023/02/03 06:54:56;;;;;;;14.60;9.30;;;7.00;99.90;;;;;;4958508;29;20781;-54
2023/02/03 06:57:23;;;;;;;17.97;10.10;;;7.10;99.90;;;;;;4959273;29;20449;-52
2023/02/03 06:59:50;;;;;;;16.00;8.60;;;7.10;99.90;;;;;;4958895;29;20449;-53
2023/02/03 07:02:17;;;;;;;12.83;8.37;;;7.10;99.90;;;;;;4958782;29;20476;-57
2023/02/03 07:04:44;;;;;;;16.80;8.77;;;7.10;99.90;;;;;;4958932;29;20472;-56
2023/02/03 07:07:11;;;;;;;10.87;7.60;;;7.10;99.90;;;;;;4958406;29;20489;-57
2023/02/03 07:09:39;;;;;;;14.43;9.00;;;7.20;99.90;;;;;;4959101;29;20461;-57
2023/02/03 07:12:09;;;;;;;11.10;6.93;;;7.20;99.90;;;;;;4959013;29;20496;-58
2023/02/03 07:14:38;;;;;;;19.23;9.17;;;7.20;99.90;;;;;;4958693;29;20445;-59
2023/02/03 07:17:05;;;;;;;11.17;7.90;;;7.20;99.90;;;;;;4959585;29;20452;-57
2023/02/03 07:19:32;;;;;;;14.90;9.30;;;7.20;99.90;;;;;;4960199;29;20461;-55
2023/02/03 07:21:59;;;;;;;14.87;9.80;;;7.30;99.90;;;;;;4959497;29;20472;-54
2023/02/03 07:24:26;;;;;;;13.63;7.80;;;7.30;99.90;;;;;;4959337;29;20541;-56
2023/02/03 07:26:57;;;;;;;14.37;7.70;;;7.30;99.90;;;;;;4959464;29;20544;-59
2023/02/03 07:29:24;;;;;;;11.70;8.83;;;7.30;99.90;;;;;;4959521;29;20488;-59
2023/02/03 07:31:51;;;;;;;15.40;9.67;;;7.30;99.90;;;;;;4959085;29;20453;-55
2023/02/03 07:34:18;;;;;;;13.97;7.83;;;7.30;99.90;;;;;;4958892;29;20495;-58
2023/02/03 07:36:44;;;;;;;12.03;6.80;;;7.30;99.90;;;;;;4959246;29;20445;-57
2023/02/03 07:39:11;;;;;;;10.73;7.20;;;7.30;99.90;;;;;;4959037;29;20480;-55
2023/02/03 07:41:38;;;;;;;13.43;8.00;;;7.40;99.90;;;;;;4959023;29;20456;-56
2023/02/03 07:44:08;;;;;;;17.83;8.07;;;7.30;99.90;;;;;;4959092;29;20453;-58
2023/02/03 07:46:38;;;;;;;15.63;9.20;;;7.40;99.90;;;;;;4958651;29;20441;-53
2023/02/03 07:49:05;;;;;;;11.90;6.23;;;7.30;99.90;;;;;;4958618;29;20444;-51
2023/02/03 07:51:35;;;;;;;15.67;8.90;;;7.30;99.90;;;;;;4958491;29;20484;-53
2023/02/03 07:54:02;;;;;;;5.90;4.43;;;7.30;99.90;;;;;;4958482;29;20449;-55
2023/02/03 07:56:31;;;;;;;14.73;5.77;;;7.40;99.90;;;;;;4959030;29;20477;-57
2023/02/03 07:58:59;;;;;;;11.97;5.63;;;7.40;99.90;;;;;;4959018;29;20425;-52
2023/02/03 08:01:28;;;;;;;10.80;7.53;;;7.40;99.90;;;;;;4958687;29;20453;-56
2023/02/03 08:03:55;;;;;;;10.20;6.50;;;7.40;99.90;;;;;;4958719;29;20470;-57
2023/02/03 08:06:22;;;;;;;16.20;7.07;;;7.40;99.90;;;;;;4958352;29;20436;-56
2023/02/03 08:08:48;;;;;;;9.50;5.67;;;7.40;99.90;;;;;;4958162;29;20492;-57
2023/02/03 08:11:15;;;;;;;4.03;2.77;;;7.40;99.90;;;;;;4958990;29;20433;-57
2023/02/03 08:13:42;;;;;;;12.93;7.10;;;7.40;99.90;;;;;;4958485;29;20465;-56
2023/02/03 08:16:09;;;;;;;5.77;4.20;;;7.40;99.90;;;;;;4958346;29;20483;-58
2023/02/03 08:18:39;;;;;;;17.07;6.60;;;7.40;99.90;;;;;;4958000;29;20461;-60
2023/02/03 08:21:06;;;;;;;10.20;5.70;;;7.50;99.90;;;;;;4958593;29;20457;-58
2023/02/03 08:23:34;;;;;;;9.10;5.80;;;7.50;99.90;;;;;;4958125;29;20424;-60
2023/02/03 08:26:03;;;;;;;6.17;4.53;;;7.40;99.90;;;;;;4958378;29;20436;-55
2023/02/03 08:28:30;;;;;;;7.20;4.93;;;7.40;99.90;;;;;;4958334;29;20488;-60
2023/02/03 08:30:57;;;;;;;9.73;6.10;;;7.50;99.90;;;;;;4957985;29;20491;-54
2023/02/03 08:33:24;;;;;;;10.03;6.20;;;7.40;99.90;;;;;;4958276;29;20448;-57
2023/02/03 08:35:52;;;;;;;7.77;5.07;;;7.50;99.90;;;;;;4958333;29;20480;-59
2023/02/03 08:38:20;;;;;;;7.27;4.73;;;7.50;99.90;;;;;;4957905;29;20479;-56
2023/02/03 08:40:47;;;;;;;6.20;4.63;;;7.50;99.90;;;;;;4957391;29;20432;-58
2023/02/03 08:43:14;;;;;;;6.37;4.57;;;7.50;99.90;;;;;;4957774;29;20437;-59
2023/02/03 08:45:41;;;;;;;7.10;5.10;;;7.50;99.90;;;;;;4957174;29;20460;-59
2023/02/03 08:48:08;;;;;;;5.40;4.30;;;7.50;99.90;;;;;;4951415;28;20499;-61
2023/02/03 08:50:37;;;;;;;4.97;3.77;;;7.50;99.90;;;;;;4956419;28;20459;-58
2023/02/03 08:53:05;;;;;;;5.73;2.60;;;7.50;99.90;;;;;;4960729;28;20440;-59
2023/02/03 08:55:32;;;;;;;2.73;2.00;;;7.50;99.90;;;;;;4960745;28;20417;-56
2023/02/03 08:57:59;;;;;;;3.33;2.47;;;7.50;99.90;;;;;;4960672;28;20496;-56
2023/02/03 09:00:26;;;;;;;6.57;5.07;;;7.50;99.90;;;;;;4960577;28;20414;-50
2023/02/03 09:02:53;;;;;;;5.57;4.20;;;7.50;99.90;;;;;;4960571;28;20416;-56
2023/02/03 09:05:20;;;;;;;3.83;3.00;;;7.50;99.90;;;;;;4960761;28;20429;-57
2023/02/03 09:07:47;;;;;;;6.50;3.73;;;7.60;99.90;;;;;;4960537;28;20448;-56
2023/02/03 09:10:15;;;;;;;6.50;3.80;;;7.60;99.90;;;;;;4960623;28;20443;-57
2023/02/03 09:12:42;;;;;;;16.13;8.43;;;7.50;99.90;;;;;;4960588;28;20409;-59
2023/02/03 09:15:12;;;;;;;4.67;3.90;;;7.50;99.90;;;;;;4960604;28;20472;-57
2023/02/03 09:17:38;;;;;;;3.97;2.70;;;7.60;99.90;;;;;;4960646;28;20449;-55
2023/02/03 09:20:07;;;;;;;5.03;3.53;;;7.60;99.90;;;;;;4960553;28;20448;-54
2023/02/03 09:22:34;;;;;;;8.50;3.80;;;7.60;99.90;;;;;;4960590;28;20409;-58
2023/02/03 09:25:01;;;;;;;6.00;4.33;;;7.60;99.90;;;;;;4960543;28;20412;-57
2023/02/03 09:27:29;;;;;;;3.20;2.53;;;7.60;99.90;;;;;;4960426;28;20480;-60
2023/02/03 09:29:57;;;;;;;3.60;2.77;;;7.60;99.90;;;;;;4960468;28;20428;-57
2023/02/03 09:32:24;;;;;;;2.20;1.83;;;7.60;99.90;;;;;;4960405;28;20460;-58
2023/02/03 09:34:51;;;;;;;5.93;3.53;;;7.70;99.90;;;;;;4960474;28;20420;-56
2023/02/03 09:37:18;;;;;;;3.63;3.30;;;7.70;99.90;;;;;;4960945;28;20455;-60
2023/02/03 09:39:47;;;;;;;3.60;2.67;;;7.70;99.90;;;;;;4963842;28;20433;-56
2023/02/03 09:42:38;;;;;;;5.37;2.70;;;7.70;99.90;;;;;;4963744;28;20425;-55
2023/02/03 09:45:17;;;;;;;2.97;2.47;;;7.70;99.90;;;;;;4963605;28;20460;-58
2023/02/03 09:47:44;;;;;;;3.10;2.50;;;7.70;99.90;;;;;;4963480;28;20463;-57
2023/02/03 09:50:15;;;;;;;3.20;2.87;;;7.70;99.90;;;;;;4963563;28;20458;-58
2023/02/03 09:52:43;;;;;;;3.13;2.80;;;7.70;99.90;;;;;;4963243;28;20469;-55
2023/02/03 09:55:24;;;;;;;4.00;3.10;;;7.70;99.90;;;;;;4962790;29;20473;-54
2023/02/03 09:57:58;;;;;;;4.30;2.27;;;7.80;99.90;;;;;;4963168;28;20437;-58
2023/02/03 10:00:30;;;;;;;3.10;2.50;;;7.80;99.90;;;;;;4963251;28;20463;-60
2023/02/03 10:03:03;;;;;;;5.83;2.73;;;7.80;99.90;;;;;;4963069;28;20429;-52
2023/02/03 10:05:42;;;;;;;4.20;3.37;;;7.80;99.90;;;;;;4963107;28;20505;-58
2023/02/03 10:08:21;;;;;;;3.97;2.40;;;7.90;99.90;;;;;;4962874;28;20496;-58
2023/02/03 10:11:08;;;;;;;3.70;2.77;;;7.90;99.90;;;;;;4962565;29;20479;-60
2023/02/03 10:13:47;;;;;;;4.10;2.80;;;7.90;99.90;;;;;;4963038;29;20421;-60
2023/02/03 10:16:24;;;;;;;2.80;2.50;;;7.90;99.90;;;;;;4962740;28;20469;-58
2023/02/03 10:18:56;;;;;;;5.87;3.17;;;7.90;99.90;;;;;;4962692;28;20417;-58
2023/02/03 10:21:35;;;;;;;3.50;2.60;;;8.00;99.90;;;;;;4962388;28;20457;-59
2023/02/03 10:24:06;;;;;;;2.37;1.63;;;8.00;99.90;;;;;;4962698;28;20433;-56
2023/02/03 10:26:33;;;;;;;3.40;2.07;;;8.00;99.90;;;;;;4962614;29;20433;-51
2023/02/03 10:29:08;;;;;;;4.93;2.90;;;8.10;99.90;;;;;;4962627;29;20456;-57
2023/02/03 10:31:37;;;;;;;4.13;2.20;;;8.10;99.90;;;;;;4962430;28;20432;-55
2023/02/03 10:34:10;;;;;;;2.43;1.67;;;8.10;99.90;;;;;;4962431;28;20441;-54
2023/02/03 10:36:52;;;;;;;2.97;2.67;;;8.20;99.90;;;;;;4962180;29;20413;-54
2023/02/03 10:39:27;;;;;;;6.13;2.60;;;8.20;99.90;;;;;;4961734;29;20464;-58
2023/02/03 10:41:55;;;;;;;2.00;1.77;;;8.20;99.90;;;;;;4961837;29;20427;-54
2023/02/03 10:44:29;;;;;;;4.50;2.10;;;8.20;99.90;;;;;;4961644;28;20480;-55
2023/02/03 10:46:57;;;;;;;3.10;2.10;;;8.20;99.90;;;;;;4961854;28;20456;-59
2023/02/03 10:49:27;;;;;;;3.80;2.20;;;8.20;99.90;;;;;;4960281;28;20493;-59
2023/02/03 10:52:00;;;;;;;2.83;2.27;;;8.20;99.90;;;;;;4961706;28;20425;-61
2023/02/03 10:54:31;;;;;;;1.97;1.30;;;8.10;99.90;;;;;;4961714;29;20445;-58
2023/02/03 10:57:04;;;;;;;4.83;1.43;;;8.00;99.90;;;;;;4961875;29;20437;-57
2023/02/03 10:59:35;;;;;;;8.50;1.53;;;7.80;99.90;;;;;;4961905;28;20413;-60
2023/02/03 11:02:08;;;;;;;2.50;1.23;;;7.60;99.90;;;;;;4961610;28;20480;-59
2023/02/03 11:04:35;;;;;;;3.43;1.23;;;7.50;99.90;;;;;;4960900;29;20425;-57
2023/02/03 11:07:05;;;;;;;6.63;1.50;;;7.50;99.90;;;;;;4961305;29;20476;-60
2023/02/03 11:09:38;;;;;;;4.50;1.47;;;7.60;99.90;;;;;;4961202;29;20468;-57
2023/02/03 11:12:14;;;;;;;1.03;0.70;;;7.60;99.90;;;;;;4961528;29;20453;-57
2023/02/03 11:14:44;;;;;;;5.13;1.57;;;7.60;99.90;;;;;;4961522;29;20413;-58
2023/02/03 11:17:17;;;;;;;2.90;1.33;;;7.50;99.90;;;;;;4961421;28;20509;-57
2023/02/03 11:19:46;;;;;;;4.03;1.33;;;7.50;99.90;;;;;;4961061;29;20524;-53
2023/02/03 11:22:13;;;;;;;6.80;1.37;;;7.60;99.90;;;;;;4961007;28;20491;-59
2023/02/03 11:24:44;;;;;;;6.70;1.17;;;7.60;99.90;;;;;;4960663;28;20467;-55
2023/02/03 11:27:15;;;;;;;3.80;2.20;;;7.60;99.90;;;;;;4960394;29;20436;-58
2023/02/03 11:29:49;;;;;;;6.10;1.10;;;7.70;99.90;;;;;;4960584;29;20477;-57
2023/02/03 11:32:20;;;;;;;6.63;1.77;;;7.70;99.90;;;;;;4960839;28;20433;-60
2023/02/03 11:34:53;;;;;;;4.10;1.17;;;7.70;99.90;;;;;;4961177;28;20489;-56
2023/02/03 11:37:32;;;;;;;3.60;1.80;;;7.80;99.90;;;;;;4961119;29;20428;-55
2023/02/03 11:40:23;;;;;;;5.57;1.53;;;7.80;99.90;;;;;;4960778;29;20488;-58
2023/02/03 11:43:05;;;;;;;5.00;1.43;;;7.90;99.90;;;;;;4960608;28;20445;-56
2023/02/03 11:45:44;;;;;;;9.13;2.63;;;7.90;99.90;;;;;;4960674;28;20480;-57
2023/02/03 11:48:29;;;;;;;2.93;1.40;;;8.00;99.90;;;;;;4960890;29;20559;-59
2023/02/03 11:51:03;;;;;;;2.07;1.13;;;8.00;99.90;;;;;;4960583;28;20489;-52
2023/02/03 11:53:41;;;;;;;10.50;2.47;;;8.00;99.90;;;;;;4960643;28;20473;-59
2023/02/03 11:56:20;;;;;;;5.00;1.47;;;8.00;99.90;;;;;;4960460;29;20527;-57
2023/02/03 11:59:00;;;;;;;9.67;2.43;;;8.20;99.90;;;;;;4960760;28;20448;-55
2023/02/03 12:01:48;;;;;;;7.23;1.97;;;8.30;99.90;;;;;;4959823;29;20544;-57
2023/02/03 12:04:48;;;;;;;6.73;2.10;;;8.40;99.90;;;;;;4960376;29;20436;-56
2023/02/03 12:07:34;;;;;;;10.63;2.10;;;8.40;99.90;;;;;;4960090;28;20456;-55
2023/02/03 12:10:09;;;;;;;12.27;2.73;;;8.40;99.90;;;;;;4960341;29;20452;-57
2023/02/03 12:12:56;;;;;;;8.77;3.07;;;8.40;99.90;;;;;;4960525;29;20469;-58
2023/02/03 12:15:40;;;;;;;13.83;2.30;;;8.40;99.90;;;;;;4960632;29;20417;-56
2023/02/03 12:18:23;;;;;;;1.50;1.07;;;8.30;99.90;;;;;;4960620;28;20515;-52
2023/02/03 12:21:07;;;;;;;18.80;2.50;;;8.30;99.90;;;;;;4960735;28;20460;-57
2023/02/03 12:23:44;;;;;;;8.13;2.33;;;8.40;99.90;;;;;;4960207;28;20473;-58
2023/02/03 12:26:20;;;;;;;9.67;3.13;;;8.50;99.90;;;;;;4959942;28;20459;-57
2023/02/03 12:28:58;;;;;;;5.07;2.47;;;8.60;99.90;;;;;;4959874;29;20475;-56
2023/02/03 12:31:31;;;;;;;6.83;2.87;;;8.70;99.90;;;;;;4960318;28;20433;-56
2023/02/03 12:34:10;;;;;;;15.70;3.20;;;8.80;99.90;;;;;;4959800;29;20444;-58
2023/02/03 12:36:41;;;;;;;8.63;1.87;;;8.80;99.90;;;;;;4959885;28;20417;-58
2023/02/03 12:39:15;;;;;;;9.43;2.13;;;8.80;99.90;;;;;;4959682;29;20514;-59
2023/02/03 12:41:48;;;;;;;44.03;5.40;;;8.90;99.90;;;;;;4959643;29;20436;-59
2023/02/03 12:44:20;;;;;;;7.80;3.70;;;8.90;99.90;;;;;;4959532;29;20433;-56
2023/02/03 12:46:51;;;;;;;13.10;2.43;;;9.00;99.90;;;;;;4959717;29;20472;-59
2023/02/03 12:49:30;;;;;;;4.70;2.13;;;8.90;99.90;;;;;;4960493;28;20488;-56
2023/02/03 12:52:09;;;;;;;7.73;2.43;;;8.80;99.90;;;;;;4960154;28;20432;-56
2023/02/03 12:54:44;;;;;;;7.10;2.50;;;8.80;99.90;;;;;;4960253;28;20424;-54
2023/02/03 12:57:24;;;;;;;13.30;3.73;;;8.80;99.90;;;;;;4959295;29;20500;-59
2023/02/03 13:00:18;;;;;;;14.57;1.80;;;8.80;99.90;;;;;;4959227;29;20436;-55
2023/02/03 13:03:00;;;;;;;18.80;3.30;;;8.70;99.90;;;;;;4959836;29;20468;-58
2023/02/03 13:05:34;;;;;;;12.57;2.53;;;8.60;99.90;;;;;;4959536;29;20437;-56
2023/02/03 13:08:11;;;;;;;7.30;2.43;;;8.30;99.90;;;;;;4959618;29;20484;-55
2023/02/03 13:10:47;;;;;;;8.57;1.70;;;7.80;99.90;;;;;;4960067;29;20432;-59
2023/02/03 13:13:20;;;;;;;6.23;1.80;;;7.40;99.90;;;;;;4962116;29;20507;-54